createdAt,value
2023-02-03T00:00:00.403Z,1.18
2023-02-03T00:01:00.488Z,1.17
2023-02-03T00:02:00.639Z,1.14
2023-02-03T00:03:00.751Z,1.12
2023-02-03T00:04:00.825Z,1.11
2023-02-03T00:05:00.912Z,1.11
2023-02-03T00:06:01.020Z,1.1
2023-02-03T00:07:01.125Z,1.1
2023-02-03T00:09:00.346Z,1.11
2023-02-03T00:10:00.430Z,1.11
2023-02-03T00:11:00.550Z,1.11
2023-02-03T00:12:00.636Z,1.11
2023-02-03T00:13:00.744Z,1.12
2023-02-03T00:14:00.875Z,1.12
2023-02-03T00:15:00.952Z,1.13
2023-02-03T00:16:01.119Z,1.14
2023-02-03T00:17:01.189Z,1.16
2023-02-03T00:18:00.260Z,1.16
2023-02-03T00:19:00.365Z,1.17
2023-02-03T00:20:00.466Z,1.18
2023-02-03T00:21:00.585Z,1.19
2023-02-03T00:22:00.718Z,1.2
2023-02-03T00:23:00.788Z,1.2
2023-02-03T00:24:00.903Z,1.21
2023-02-03T00:25:00.979Z,1.22
2023-02-03T00:26:01.122Z,1.23
2023-02-03T00:27:01.217Z,1.23
2023-02-03T00:28:00.318Z,1.24
2023-02-03T00:29:00.412Z,1.25
2023-02-03T00:30:00.502Z,1.24
2023-02-03T00:31:00.622Z,1.26
2023-02-03T00:32:00.856Z,1.27
2023-02-03T00:33:00.848Z,1.28
2023-02-03T00:34:00.939Z,1.29
2023-02-03T00:35:01.036Z,1.31
2023-02-03T00:36:01.180Z,1.32
2023-02-03T00:37:00.244Z,1.33
2023-02-03T00:38:00.347Z,1.35
2023-02-03T00:39:00.440Z,1.36
2023-02-03T00:40:00.549Z,1.37
2023-02-03T00:41:00.664Z,1.39
2023-02-03T00:42:00.759Z,1.4
2023-02-03T00:43:00.867Z,1.42
2023-02-03T00:44:00.965Z,1.46
2023-02-03T00:45:01.062Z,1.48
2023-02-03T00:46:01.342Z,1.49
2023-02-03T00:47:00.284Z,1.51
2023-02-03T00:48:00.436Z,1.53
2023-02-03T00:49:00.504Z,1.55
2023-02-03T00:50:00.604Z,1.57
2023-02-03T00:51:00.714Z,1.6
2023-02-03T00:52:00.823Z,1.61
2023-02-03T00:53:00.928Z,1.63
2023-02-03T00:54:01.053Z,1.64
2023-02-03T00:55:01.155Z,1.65
2023-02-03T00:56:00.254Z,1.68
2023-02-03T00:57:00.345Z,1.7
2023-02-03T00:58:00.445Z,1.73
2023-02-03T00:59:00.592Z,1.76
2023-02-03T01:00:00.671Z,1.77
2023-02-03T01:01:00.798Z,1.79
2023-02-03T01:02:00.918Z,1.82
2023-02-03T01:03:00.975Z,1.84
2023-02-03T01:04:01.104Z,1.86
2023-02-03T01:09:00.658Z,1.99
2023-02-03T01:10:00.713Z,2
2023-02-03T01:11:00.815Z,2.02
2023-02-03T01:12:00.921Z,2.06
2023-02-03T01:13:01.019Z,2.08
2023-02-03T01:14:01.134Z,2.1
2023-02-03T01:15:01.241Z,2.12
2023-02-03T01:16:00.320Z,2.12
2023-02-03T01:17:00.469Z,2.13
2023-02-03T01:18:00.526Z,2.14
2023-02-03T01:19:00.630Z,2.17
2023-02-03T01:20:00.781Z,2.19
2023-02-03T01:21:00.852Z,2.22
2023-02-03T01:22:00.950Z,2.25
2023-02-03T01:23:01.059Z,2.29
2023-02-03T01:24:01.184Z,2.34
2023-02-03T01:25:00.263Z,2.37
2023-02-03T01:26:00.391Z,2.39
2023-02-03T01:27:00.493Z,2.41
2023-02-03T01:28:00.639Z,2.44
2023-02-03T01:29:00.690Z,2.49
2023-02-03T01:30:00.813Z,2.51
2023-02-03T01:31:00.966Z,2.54
2023-02-03T01:32:01.215Z,2.56
2023-02-03T01:33:01.118Z,2.59
2023-02-03T01:34:01.218Z,2.64
2023-02-03T01:35:00.330Z,2.67
2023-02-03T01:36:00.418Z,2.69
2023-02-03T01:37:00.566Z,2.72
2023-02-03T01:38:00.621Z,2.73
2023-02-03T01:39:00.729Z,2.74
2023-02-03T01:40:00.835Z,2.76
2023-02-03T01:41:00.958Z,2.78
2023-02-03T01:42:01.052Z,2.78
2023-02-03T01:43:01.177Z,2.78
2023-02-03T01:44:00.253Z,2.79
2023-02-03T01:45:00.390Z,2.81
2023-02-03T01:46:00.509Z,2.82
2023-02-03T01:47:00.584Z,2.86
2023-02-03T01:48:00.703Z,2.88
2023-02-03T01:49:00.809Z,2.88
2023-02-03T01:50:00.909Z,2.89
2023-02-03T01:51:01.016Z,2.9
2023-02-03T01:52:01.122Z,2.91
2023-02-03T01:53:01.236Z,2.93
2023-02-03T01:54:00.368Z,2.95
2023-02-03T01:55:00.436Z,2.96
2023-02-03T01:56:00.542Z,2.98
2023-02-03T01:57:00.671Z,3
2023-02-03T01:58:00.784Z,3
2023-02-03T01:59:00.902Z,3.02
2023-02-03T02:00:01.025Z,3.03
2023-02-03T02:01:01.157Z,3.04
2023-02-03T02:02:01.203Z,3.05
2023-02-03T02:03:00.299Z,3.06
2023-02-03T02:04:00.428Z,3.08
2023-02-03T02:05:00.509Z,3.08
2023-02-03T02:06:00.614Z,3.09
2023-02-03T02:07:00.719Z,3.09
2023-02-03T02:08:00.837Z,3.1
2023-02-03T02:09:00.941Z,3.1
2023-02-03T02:10:01.015Z,3.11
2023-02-03T02:11:01.130Z,3.12
2023-02-03T02:12:01.239Z,3.12
2023-02-03T02:13:00.340Z,3.14
2023-02-03T02:14:00.464Z,3.15
2023-02-03T02:15:00.580Z,3.16
2023-02-03T02:16:00.775Z,3.17
2023-02-03T02:17:00.783Z,3.18
2023-02-03T02:18:00.870Z,3.2
2023-02-03T02:19:01.013Z,3.21
2023-02-03T02:20:01.086Z,3.23
2023-02-03T02:21:01.208Z,3.23
2023-02-03T02:22:00.291Z,3.24
2023-02-03T02:23:00.403Z,3.25
2023-02-03T02:24:00.527Z,3.25
2023-02-03T02:25:00.615Z,3.26
2023-02-03T02:26:00.721Z,3.26
2023-02-03T02:27:00.831Z,3.26
2023-02-03T02:28:01.051Z,3.25
2023-02-03T02:29:01.065Z,3.26
2023-02-03T02:30:01.145Z,3.26
2023-02-03T02:31:00.414Z,3.27
2023-02-03T02:32:00.430Z,3.28
2023-02-03T02:33:00.466Z,3.29
2023-02-03T02:34:02.653Z,3.29
2023-02-03T02:35:00.684Z,3.3
2023-02-03T02:36:00.776Z,3.3
2023-02-03T02:37:00.872Z,3.31
2023-02-03T02:38:00.978Z,3.31
2023-02-03T02:39:01.121Z,3.32
2023-02-03T02:40:01.201Z,3.33
2023-02-03T02:41:00.358Z,3.33
2023-02-03T02:42:00.389Z,3.33
2023-02-03T02:43:00.511Z,3.34
2023-02-03T02:44:00.606Z,3.34
2023-02-03T02:45:00.710Z,3.34
2023-02-03T02:46:00.923Z,3.33
2023-02-03T02:47:00.919Z,3.34
2023-02-03T02:48:01.039Z,3.35
2023-02-03T02:49:01.162Z,3.35
2023-02-03T02:50:00.372Z,3.35
2023-02-03T02:51:00.356Z,3.34
2023-02-03T02:52:00.446Z,3.35
2023-02-03T02:53:00.560Z,3.36
2023-02-03T02:54:00.683Z,3.38
2023-02-03T02:55:00.778Z,3.38
2023-02-03T02:56:00.891Z,3.38
2023-02-03T02:57:01.009Z,3.39
2023-02-03T02:58:01.093Z,3.41
2023-02-03T02:59:01.192Z,3.41
2023-02-03T03:00:00.345Z,3.4
2023-02-03T03:01:00.409Z,3.42
2023-02-03T03:02:00.541Z,3.44
2023-02-03T03:03:00.631Z,3.46
2023-02-03T03:04:00.722Z,3.46
2023-02-03T03:05:00.916Z,3.44
2023-02-03T03:06:00.936Z,3.44
2023-02-03T03:07:01.055Z,3.44
2023-02-03T03:08:01.161Z,3.44
2023-02-03T03:09:00.315Z,3.44
2023-02-03T03:10:00.382Z,3.44
2023-02-03T03:11:00.477Z,3.44
2023-02-03T03:12:00.571Z,3.44
2023-02-03T03:13:00.692Z,3.46
2023-02-03T03:14:00.797Z,3.47
2023-02-03T03:15:00.919Z,3.47
2023-02-03T03:16:01.092Z,3.47
2023-02-03T03:17:01.124Z,3.48
2023-02-03T03:18:01.223Z,3.48
2023-02-03T03:19:00.405Z,3.48
2023-02-03T03:20:00.450Z,3.5
2023-02-03T03:21:00.560Z,3.53
2023-02-03T03:22:00.645Z,3.55
2023-02-03T03:23:00.759Z,3.55
2023-02-03T03:24:00.854Z,3.55
2023-02-03T03:25:00.961Z,3.56
2023-02-03T03:26:01.091Z,3.57
2023-02-03T03:27:01.191Z,3.59
2023-02-03T03:28:00.554Z,3.62
2023-02-03T03:29:00.381Z,3.63
2023-02-03T03:30:00.492Z,3.67
2023-02-03T03:31:00.773Z,3.71
2023-02-03T03:32:00.727Z,3.72
2023-02-03T03:33:00.790Z,3.74
2023-02-03T03:34:00.902Z,3.77
2023-02-03T03:35:01.000Z,3.79
2023-02-03T03:36:01.136Z,3.8
2023-02-03T03:37:01.237Z,3.83
2023-02-03T03:38:00.396Z,3.87
2023-02-03T03:39:00.552Z,3.89
2023-02-03T03:40:00.545Z,3.91
2023-02-03T03:41:00.680Z,3.93
2023-02-03T03:42:00.745Z,3.95
2023-02-03T03:43:00.851Z,3.97
2023-02-03T03:44:00.958Z,3.99
2023-02-03T03:45:01.066Z,4
2023-02-03T03:46:01.337Z,3.99
2023-02-03T03:47:00.394Z,4
2023-02-03T03:48:00.552Z,4.02
2023-02-03T03:49:00.467Z,4.04
2023-02-03T03:50:00.576Z,4.05
2023-02-03T03:51:00.695Z,4.06
2023-02-03T03:52:00.792Z,4.07
2023-02-03T03:53:00.948Z,4.09
2023-02-03T03:54:00.995Z,4.1
2023-02-03T03:55:01.111Z,4.12
2023-02-03T03:56:01.244Z,4.13
2023-02-03T03:57:00.425Z,4.15
2023-02-03T03:58:00.446Z,4.15
2023-02-03T03:59:00.529Z,4.15
2023-02-03T04:00:00.651Z,4.16
2023-02-03T04:01:00.762Z,4.16
2023-02-03T04:02:00.939Z,4.18
2023-02-03T04:03:01.034Z,4.2
2023-02-03T04:04:01.082Z,4.22
2023-02-03T04:05:01.187Z,4.26
2023-02-03T04:06:00.322Z,4.26
2023-02-03T04:07:00.469Z,4.29
2023-02-03T04:08:00.505Z,4.31
2023-02-03T04:09:00.604Z,4.33
2023-02-03T04:10:00.711Z,4.33
2023-02-03T04:11:00.844Z,4.37
2023-02-03T04:12:00.961Z,4.38
2023-02-03T04:13:01.041Z,4.42
2023-02-03T04:14:01.157Z,4.43
2023-02-03T04:15:00.272Z,4.45
2023-02-03T04:16:00.611Z,4.45
2023-02-03T04:17:00.594Z,4.46
2023-02-03T04:18:00.588Z,4.45
2023-02-03T04:19:00.670Z,4.46
2023-02-03T04:20:00.780Z,4.47
2023-02-03T04:21:00.893Z,4.48
2023-02-03T04:22:00.992Z,4.5
2023-02-03T04:23:01.141Z,4.52
2023-02-03T04:24:01.220Z,4.53
2023-02-03T04:25:00.315Z,4.54
2023-02-03T04:26:00.527Z,4.56
2023-02-03T04:27:00.550Z,4.56
2023-02-03T04:28:00.781Z,4.57
2023-02-03T04:29:00.756Z,4.59
2023-02-03T04:30:00.859Z,4.6
2023-02-03T04:31:01.041Z,4.61
2023-02-03T04:32:01.123Z,4.62
2023-02-03T04:33:01.160Z,4.63
2023-02-03T04:34:00.262Z,4.64
2023-02-03T04:35:00.363Z,4.66
2023-02-03T04:36:00.568Z,4.66
2023-02-03T04:37:00.579Z,4.67
2023-02-03T04:38:00.704Z,4.67
2023-02-03T04:39:00.798Z,4.67
2023-02-03T04:40:00.890Z,4.68
2023-02-03T04:41:01.016Z,4.67
2023-02-03T04:42:01.121Z,4.67
2023-02-03T04:43:01.219Z,4.68
2023-02-03T04:44:00.313Z,4.69
2023-02-03T04:45:00.436Z,4.71
2023-02-03T04:46:00.703Z,4.72
2023-02-03T04:47:00.640Z,4.72
2023-02-03T04:48:00.737Z,4.72
2023-02-03T04:49:00.852Z,4.72
2023-02-03T04:50:00.978Z,4.71
2023-02-03T04:51:01.047Z,4.71
2023-02-03T04:52:01.179Z,4.69
2023-02-03T04:53:00.268Z,4.69
2023-02-03T04:54:00.383Z,4.69
2023-02-03T04:55:00.702Z,4.69
2023-02-03T04:56:00.599Z,4.69
2023-02-03T04:57:00.696Z,4.69
2023-02-03T04:58:00.830Z,4.69
2023-02-03T04:59:00.912Z,4.69
2023-02-03T05:00:01.012Z,4.69
2023-02-03T05:01:01.179Z,4.71
2023-02-03T05:03:00.420Z,4.69
2023-02-03T05:04:00.494Z,4.68
2023-02-03T05:05:00.669Z,4.67
2023-02-03T05:06:00.660Z,4.67
2023-02-03T05:07:00.753Z,4.67
2023-02-03T05:08:00.877Z,4.66
2023-02-03T05:09:00.966Z,4.66
2023-02-03T05:10:01.085Z,4.66
2023-02-03T05:11:02.308Z,4.66
2023-02-03T05:12:00.287Z,4.65
2023-02-03T05:13:00.389Z,4.65
2023-02-03T05:14:00.497Z,4.65
2023-02-03T05:15:00.785Z,4.67
2023-02-03T05:16:00.723Z,4.66
2023-02-03T05:17:00.797Z,4.66
2023-02-03T05:18:00.937Z,4.67
2023-02-03T05:19:01.008Z,4.66
2023-02-03T05:20:01.109Z,4.65
2023-02-03T05:21:01.224Z,4.65
2023-02-03T05:22:00.323Z,4.65
2023-02-03T05:23:00.431Z,4.65
2023-02-03T05:24:00.526Z,4.66
2023-02-03T05:25:00.740Z,4.68
2023-02-03T05:26:00.762Z,4.68
2023-02-03T05:27:00.861Z,4.67
2023-02-03T05:28:01.034Z,4.69
2023-02-03T05:29:01.087Z,4.68
2023-02-03T05:30:01.160Z,4.68
2023-02-03T05:31:00.377Z,4.68
2023-02-03T05:32:00.453Z,4.69
2023-02-03T05:33:00.469Z,4.72
2023-02-03T05:34:00.598Z,4.73
2023-02-03T05:35:00.765Z,4.75
2023-02-03T05:36:00.906Z,4.73
2023-02-03T05:37:00.932Z,4.75
2023-02-03T05:38:00.995Z,4.75
2023-02-03T05:39:01.120Z,4.76
2023-02-03T05:40:01.227Z,4.78
2023-02-03T05:41:00.299Z,4.78
2023-02-03T05:42:00.425Z,4.79
2023-02-03T05:43:00.518Z,4.78
2023-02-03T05:44:00.679Z,4.79
2023-02-03T05:45:00.719Z,4.79
2023-02-03T05:46:00.922Z,4.8
2023-02-03T05:47:00.932Z,4.81
2023-02-03T05:48:01.033Z,4.82
2023-02-03T05:49:01.162Z,4.82
2023-02-03T05:50:00.241Z,4.84
2023-02-03T05:51:00.350Z,4.86
2023-02-03T05:52:00.441Z,4.86
2023-02-03T05:53:00.565Z,4.86
2023-02-03T05:54:00.669Z,4.86
2023-02-03T05:55:00.847Z,4.86
2023-02-03T05:56:00.885Z,4.87
2023-02-03T05:57:00.995Z,4.86
2023-02-03T05:58:01.129Z,4.84
2023-02-03T05:59:01.189Z,4.84
2023-02-03T06:00:00.317Z,4.84
2023-02-03T06:01:00.415Z,4.86
2023-02-03T06:02:00.540Z,4.87
2023-02-03T06:03:00.748Z,4.88
2023-02-03T06:04:00.930Z,4.88
2023-02-03T06:05:00.916Z,4.9
2023-02-03T06:06:00.988Z,4.91
2023-02-03T06:07:01.053Z,4.89
2023-02-03T06:08:01.156Z,4.9
2023-02-03T06:09:00.263Z,4.9
2023-02-03T06:10:00.394Z,4.89
2023-02-03T06:11:00.475Z,4.89
2023-02-03T06:12:00.575Z,4.88
2023-02-03T06:13:00.683Z,4.86
2023-02-03T06:14:00.971Z,4.86
2023-02-03T06:15:00.923Z,4.86
2023-02-03T06:16:01.023Z,4.86
2023-02-03T06:17:01.153Z,4.87
2023-02-03T06:18:01.206Z,4.86
2023-02-03T06:19:00.335Z,4.84
2023-02-03T06:20:00.417Z,4.84
2023-02-03T06:21:00.531Z,4.84
2023-02-03T06:22:00.635Z,4.84
2023-02-03T06:23:00.747Z,4.84
2023-02-03T06:24:01.010Z,4.87
2023-02-03T06:25:00.965Z,4.89
2023-02-03T06:26:01.104Z,4.88
2023-02-03T06:27:01.192Z,4.89
2023-02-03T06:28:00.375Z,4.9
2023-02-03T06:29:00.409Z,4.89
2023-02-03T06:30:00.512Z,4.9
2023-02-03T06:31:00.699Z,4.89
2023-02-03T06:32:01.011Z,4.89
2023-02-03T06:33:00.811Z,4.9
2023-02-03T06:34:01.015Z,4.89
2023-02-03T06:35:01.049Z,4.9
2023-02-03T06:36:01.134Z,4.89
2023-02-03T06:38:00.341Z,4.88
2023-02-03T06:39:00.445Z,4.89
2023-02-03T06:40:00.600Z,4.91
2023-02-03T06:41:00.649Z,4.91
2023-02-03T06:42:00.749Z,4.93
2023-02-03T06:43:00.864Z,4.94
2023-02-03T06:44:01.016Z,4.94
2023-02-03T06:45:01.189Z,4.92
2023-02-03T06:46:01.184Z,4.92
2023-02-03T06:47:00.267Z,4.93
2023-02-03T06:48:00.375Z,4.94
2023-02-03T06:49:00.500Z,4.97
2023-02-03T06:50:00.642Z,4.98
2023-02-03T06:51:00.697Z,5
2023-02-03T06:52:00.808Z,5
2023-02-03T06:53:01.034Z,5.02
2023-02-03T06:54:01.035Z,5.04
2023-02-03T06:55:01.159Z,5.05
2023-02-03T06:56:00.255Z,5.06
2023-02-03T06:57:00.348Z,5.06
2023-02-03T06:58:00.454Z,5.06
2023-02-03T06:59:00.557Z,5.08
2023-02-03T07:00:00.699Z,5.07
2023-02-03T07:01:00.800Z,5.08
2023-02-03T07:02:00.899Z,5.08
2023-02-03T07:03:01.082Z,5.1
2023-02-03T07:04:01.111Z,5.1
2023-02-03T07:05:01.206Z,5.1
2023-02-03T07:06:00.333Z,5.09
2023-02-03T07:07:00.436Z,5.11
2023-02-03T07:08:00.544Z,5.12
2023-02-03T07:09:01.806Z,5.12
2023-02-03T07:10:00.744Z,5.13
2023-02-03T07:11:00.861Z,5.15
2023-02-03T07:12:00.964Z,5.15
2023-02-03T07:13:01.179Z,5.19
2023-02-03T07:14:01.221Z,5.19
2023-02-03T07:15:00.291Z,5.18
2023-02-03T07:16:00.470Z,5.17
2023-02-03T07:17:00.480Z,5.16
2023-02-03T07:18:00.615Z,5.17
2023-02-03T07:19:00.700Z,5.19
2023-02-03T07:20:00.817Z,5.18
2023-02-03T07:21:00.923Z,5.16
2023-02-03T07:22:01.156Z,5.16
2023-02-03T07:23:01.183Z,5.15
2023-02-03T07:24:00.251Z,5.12
2023-02-03T07:25:00.388Z,5.11
2023-02-03T07:26:00.457Z,5.13
2023-02-03T07:27:02.317Z,5.17
2023-02-03T07:28:00.729Z,5.17
2023-02-03T07:29:00.886Z,5.18
2023-02-03T07:30:00.947Z,5.19
2023-02-03T07:31:01.267Z,5.2
2023-02-03T07:32:01.459Z,5.19
2023-02-03T07:33:01.189Z,5.2
2023-02-03T07:34:00.312Z,5.19
2023-02-03T07:35:00.429Z,5.19
2023-02-03T07:36:00.549Z,5.2
2023-02-03T07:37:00.626Z,5.23
2023-02-03T07:38:00.728Z,5.24
2023-02-03T07:39:00.838Z,5.25
2023-02-03T07:40:00.937Z,5.27
2023-02-03T07:41:01.058Z,5.28
2023-02-03T07:42:01.288Z,5.28
2023-02-03T07:43:00.249Z,5.28
2023-02-03T07:44:00.358Z,5.31
2023-02-03T07:45:00.468Z,5.32
2023-02-03T07:46:00.562Z,5.31
2023-02-03T07:47:00.662Z,5.3
2023-02-03T07:48:00.765Z,5.28
2023-02-03T07:49:00.918Z,5.28
2023-02-03T07:50:01.007Z,5.3
2023-02-03T07:51:01.095Z,5.32
2023-02-03T07:52:01.255Z,5.33
2023-02-03T07:53:00.331Z,5.36
2023-02-03T07:54:00.412Z,5.38
2023-02-03T07:55:00.525Z,5.39
2023-02-03T07:56:00.628Z,5.42
2023-02-03T07:57:00.729Z,5.45
2023-02-03T07:58:03.213Z,5.46
2023-02-03T07:59:00.975Z,5.48
2023-02-03T08:00:01.073Z,5.5
2023-02-03T08:01:01.328Z,5.52
2023-02-03T08:02:00.340Z,5.55
2023-02-03T08:03:00.367Z,5.54
2023-02-03T08:04:00.495Z,5.54
2023-02-03T08:05:00.594Z,5.54
2023-02-03T08:06:00.669Z,5.55
2023-02-03T08:07:00.785Z,5.56
2023-02-03T08:08:00.888Z,5.57
2023-02-03T08:09:00.997Z,5.56
2023-02-03T08:10:01.091Z,5.59
2023-02-03T08:11:01.368Z,5.64
2023-02-03T08:12:00.292Z,5.68
2023-02-03T08:13:00.402Z,5.71
2023-02-03T08:14:00.525Z,5.72
2023-02-03T08:15:00.629Z,5.74
2023-02-03T08:16:00.744Z,5.74
2023-02-03T08:17:00.817Z,5.74
2023-02-03T08:18:00.912Z,5.75
2023-02-03T08:19:01.054Z,5.78
2023-02-03T08:20:01.154Z,5.81
2023-02-03T08:21:00.233Z,5.82
2023-02-03T08:22:00.343Z,5.83
2023-02-03T08:23:00.452Z,5.82
2023-02-03T08:24:00.572Z,5.82
2023-02-03T08:25:00.652Z,5.82
2023-02-03T08:26:00.770Z,5.82
2023-02-03T08:27:00.861Z,5.84
2023-02-03T08:28:01.035Z,5.84
2023-02-03T08:29:01.113Z,5.85
2023-02-03T08:30:01.214Z,5.86
2023-02-03T08:31:02.972Z,5.87
2023-02-03T08:32:00.445Z,5.91
2023-02-03T08:33:00.531Z,5.94
2023-02-03T08:34:00.646Z,5.95
2023-02-03T08:35:00.717Z,5.97
2023-02-03T08:36:00.844Z,6
2023-02-03T08:37:00.960Z,6.04
2023-02-03T08:38:01.036Z,6.04
2023-02-03T08:39:01.133Z,6.07
2023-02-03T08:40:00.256Z,6.07
2023-02-03T08:41:00.347Z,6.12
2023-02-03T08:42:00.473Z,6.14
2023-02-03T08:43:00.568Z,6.15
2023-02-03T08:44:00.661Z,6.19
2023-02-03T08:45:02.341Z,6.19
2023-02-03T08:46:00.909Z,6.19
2023-02-03T08:47:00.991Z,6.16
2023-02-03T08:48:01.096Z,6.2
2023-02-03T08:49:01.192Z,6.23
2023-02-03T08:50:00.320Z,6.25
2023-02-03T08:51:00.405Z,6.29
2023-02-03T08:52:00.525Z,6.3
2023-02-03T08:53:00.614Z,6.28
2023-02-03T08:54:00.715Z,6.26
2023-02-03T08:55:00.836Z,6.25
2023-02-03T08:56:00.936Z,6.27
2023-02-03T08:57:01.053Z,6.27
2023-02-03T08:58:01.134Z,6.28
2023-02-03T08:59:01.238Z,6.28
2023-02-03T09:00:00.350Z,6.26
2023-02-03T09:01:00.481Z,6.26
2023-02-03T09:02:00.556Z,6.26
2023-02-03T09:03:00.661Z,6.27
2023-02-03T09:04:00.763Z,6.28
2023-02-03T09:05:00.928Z,6.28
2023-02-03T09:06:00.988Z,6.28
2023-02-03T09:07:01.076Z,6.31
2023-02-03T09:08:01.193Z,6.33
2023-02-03T09:09:00.304Z,6.33
2023-02-03T09:10:00.432Z,6.33
2023-02-03T09:11:00.514Z,6.34
2023-02-03T09:12:00.631Z,6.41
2023-02-03T09:13:00.738Z,6.46
2023-02-03T09:14:00.859Z,6.51
2023-02-03T09:15:00.992Z,6.52
2023-02-03T09:16:01.069Z,6.49
2023-02-03T09:17:01.253Z,6.51
2023-02-03T09:18:00.288Z,6.51
2023-02-03T09:19:00.377Z,6.53
2023-02-03T09:20:00.568Z,6.54
2023-02-03T09:21:00.586Z,6.53
2023-02-03T09:22:00.715Z,6.52
2023-02-03T09:23:00.821Z,6.51
2023-02-03T09:24:00.911Z,6.52
2023-02-03T09:25:01.047Z,6.54
2023-02-03T09:26:01.147Z,6.56
2023-02-03T09:27:01.229Z,6.56
2023-02-03T09:28:00.418Z,6.6
2023-02-03T09:29:00.468Z,6.61
2023-02-03T09:30:00.591Z,6.64
2023-02-03T09:31:00.724Z,6.64
2023-02-03T09:32:00.827Z,6.65
2023-02-03T09:33:00.865Z,6.67
2023-02-03T09:34:00.975Z,6.66
2023-02-03T09:35:01.083Z,6.68
2023-02-03T09:36:01.183Z,6.69
2023-02-03T09:37:00.288Z,6.68
2023-02-03T09:38:00.405Z,6.72
2023-02-03T09:39:00.495Z,6.71
2023-02-03T09:40:00.613Z,6.72
2023-02-03T09:41:11.230Z,6.7
2023-02-03T09:42:01.398Z,6.7
2023-02-03T09:43:00.922Z,6.75
2023-02-03T09:44:01.029Z,6.75
2023-02-03T09:45:01.127Z,6.75
2023-02-03T09:46:01.266Z,6.75
2023-02-03T09:47:00.509Z,6.76
2023-02-03T09:48:00.441Z,6.8
2023-02-03T09:49:00.553Z,6.8
2023-02-03T09:50:00.676Z,6.79
2023-02-03T09:51:00.782Z,6.78
2023-02-03T09:52:00.903Z,6.78
2023-02-03T09:53:00.980Z,6.76
2023-02-03T09:54:01.086Z,6.78
2023-02-03T09:55:01.229Z,6.79
2023-02-03T09:56:00.327Z,6.8
2023-02-03T09:57:00.423Z,6.81
2023-02-03T09:58:00.522Z,6.8
2023-02-03T09:59:00.622Z,6.82
2023-02-03T10:00:00.754Z,6.86
2023-02-03T10:01:00.925Z,6.88
2023-02-03T10:02:00.937Z,6.91
2023-02-03T10:03:01.173Z,6.94
2023-02-03T10:04:01.151Z,6.97
2023-02-03T10:05:00.268Z,6.99
2023-02-03T10:06:00.366Z,6.98
2023-02-03T10:07:00.460Z,6.96
2023-02-03T10:08:00.593Z,6.96
2023-02-03T10:09:00.678Z,6.96
2023-02-03T10:10:00.777Z,6.96
2023-02-03T10:11:00.918Z,6.98
2023-02-03T10:12:00.993Z,6.99
2023-02-03T10:13:01.099Z,6.99
2023-02-03T10:14:01.199Z,6.98
2023-02-03T10:15:00.300Z,6.99
2023-02-03T10:16:00.449Z,6.96
2023-02-03T10:17:00.769Z,6.95
2023-02-03T10:18:00.626Z,6.95
2023-02-03T10:19:02.632Z,6.96
2023-02-03T10:20:00.820Z,6.97
2023-02-03T10:21:00.956Z,6.96
2023-02-03T10:22:01.035Z,6.94
2023-02-03T10:23:01.187Z,6.95
2023-02-03T10:24:00.240Z,6.98
2023-02-03T10:25:00.364Z,7
2023-02-03T10:26:00.472Z,6.99
2023-02-03T10:27:00.555Z,6.97
2023-02-03T10:28:00.727Z,6.98
2023-02-03T10:29:00.769Z,7
2023-02-03T10:30:00.926Z,7.04
2023-02-03T10:31:01.235Z,7.08
2023-02-03T10:32:01.207Z,7.1
2023-02-03T10:33:01.224Z,7.08
2023-02-03T10:34:00.312Z,7.05
2023-02-03T10:35:00.419Z,7.02
2023-02-03T10:36:00.545Z,7.01
2023-02-03T10:37:00.670Z,6.98
2023-02-03T10:38:00.736Z,6.97
2023-02-03T10:39:00.838Z,6.97
2023-02-03T10:40:00.965Z,6.94
2023-02-03T10:41:01.152Z,6.91
2023-02-03T10:42:01.173Z,6.93
2023-02-03T10:43:00.254Z,6.89
2023-02-03T10:44:00.373Z,6.89
2023-02-03T10:45:00.500Z,6.89
2023-02-03T10:46:00.666Z,6.86
2023-02-03T10:47:00.680Z,6.86
2023-02-03T10:48:00.804Z,6.85
2023-02-03T10:49:00.880Z,6.84
2023-02-03T10:50:00.994Z,6.82
2023-02-03T10:51:01.108Z,6.8
2023-02-03T10:52:01.205Z,6.78
2023-02-03T10:53:00.313Z,6.75
2023-02-03T10:54:00.447Z,6.74
2023-02-03T10:55:00.622Z,6.73
2023-02-03T10:56:00.616Z,6.72
2023-02-03T10:57:00.722Z,6.7
2023-02-03T10:58:00.820Z,6.68
2023-02-03T10:59:00.969Z,6.64
2023-02-03T11:00:01.026Z,6.63
2023-02-03T11:01:01.132Z,6.61
2023-02-03T11:02:01.269Z,6.6
2023-02-03T11:03:00.397Z,6.6
2023-02-03T11:04:00.446Z,6.61
2023-02-03T11:05:00.536Z,6.65
2023-02-03T11:06:00.649Z,6.68
2023-02-03T11:07:00.735Z,6.68
2023-02-03T11:08:00.848Z,6.67
2023-02-03T11:09:00.984Z,6.67
2023-02-03T11:10:01.050Z,6.65
2023-02-03T11:11:01.178Z,6.64
2023-02-03T11:12:00.267Z,6.63
2023-02-03T11:13:00.377Z,6.61
2023-02-03T11:14:00.475Z,6.61
2023-02-03T11:15:00.592Z,6.64
2023-02-03T11:16:00.802Z,6.61
2023-02-03T11:17:00.782Z,6.6
2023-02-03T11:18:00.894Z,6.6
2023-02-03T11:19:01.017Z,6.58
2023-02-03T11:20:01.157Z,6.57
2023-02-03T11:21:01.226Z,6.58
2023-02-03T11:22:00.329Z,6.59
2023-02-03T11:23:00.468Z,6.6
2023-02-03T11:24:00.543Z,6.6
2023-02-03T11:25:00.664Z,6.6
2023-02-03T11:26:00.744Z,6.59
2023-02-03T11:27:00.860Z,6.6
2023-02-03T11:28:01.096Z,6.58
2023-02-03T11:29:01.058Z,6.58
2023-02-03T11:30:01.216Z,6.57
2023-02-03T11:31:00.397Z,6.58
2023-02-03T11:32:00.630Z,6.57
2023-02-03T11:33:00.498Z,6.57
2023-02-03T11:34:00.598Z,6.55
2023-02-03T11:35:00.733Z,6.53
2023-02-03T11:36:00.807Z,6.52
2023-02-03T11:37:00.917Z,6.51
2023-02-03T11:38:01.036Z,6.51
2023-02-03T11:39:01.153Z,6.5
2023-02-03T11:41:00.344Z,6.52
2023-02-03T11:42:00.440Z,6.52
2023-02-03T11:43:00.547Z,6.52
2023-02-03T11:44:00.660Z,6.55
2023-02-03T11:45:00.757Z,6.6
2023-02-03T11:46:00.897Z,6.63
2023-02-03T11:47:01.161Z,6.63
2023-02-03T11:48:01.144Z,6.63
2023-02-03T11:49:01.201Z,6.59
2023-02-03T11:50:00.295Z,6.58
2023-02-03T11:51:00.393Z,6.58
2023-02-03T11:52:00.509Z,6.55
2023-02-03T11:53:00.631Z,6.55
2023-02-03T11:54:00.735Z,6.55
2023-02-03T11:55:00.817Z,6.54
2023-02-03T11:56:00.937Z,6.52
2023-02-03T11:57:01.139Z,6.5
2023-02-03T11:58:01.161Z,6.45
2023-02-03T11:59:00.240Z,6.43
2023-02-03T12:00:00.360Z,6.41
2023-02-03T12:01:00.455Z,6.38
2023-02-03T12:02:00.556Z,6.38
2023-02-03T12:03:00.794Z,6.36
2023-02-03T12:04:00.789Z,6.34
2023-02-03T12:05:01.222Z,6.34
2023-02-03T12:06:00.987Z,6.33
2023-02-03T12:07:01.098Z,6.31
2023-02-03T12:08:01.251Z,6.3
2023-02-03T12:09:00.325Z,6.3
2023-02-03T12:10:00.405Z,6.28
2023-02-03T12:11:03.026Z,6.25
2023-02-03T12:12:00.621Z,6.25
2023-02-03T12:13:00.739Z,6.25
2023-02-03T12:14:00.837Z,6.23
2023-02-03T12:15:00.932Z,6.22
2023-02-03T12:16:01.077Z,6.2
2023-02-03T12:17:01.169Z,6.2
2023-02-03T12:18:00.263Z,6.2
2023-02-03T12:19:00.361Z,6.2
2023-02-03T12:20:00.471Z,6.17
2023-02-03T12:21:00.573Z,6.16
2023-02-03T12:22:00.699Z,6.15
2023-02-03T12:23:00.837Z,6.15
2023-02-03T12:24:00.891Z,6.14
2023-02-03T12:25:00.997Z,6.14
2023-02-03T12:26:01.097Z,6.13
2023-02-03T12:27:01.212Z,6.14
2023-02-03T12:28:00.402Z,6.15
2023-02-03T12:29:00.413Z,6.17
2023-02-03T12:30:00.560Z,6.19
2023-02-03T12:31:00.797Z,6.19
2023-02-03T12:32:00.804Z,6.17
2023-02-03T12:33:00.837Z,6.19
2023-02-03T12:34:00.941Z,6.19
2023-02-03T12:35:01.059Z,6.19
2023-02-03T12:36:01.169Z,6.2
2023-02-03T12:37:00.270Z,6.2
2023-02-03T12:38:00.369Z,6.21
2023-02-03T12:39:00.460Z,6.21
2023-02-03T12:40:00.573Z,6.21
2023-02-03T12:41:00.692Z,6.21
2023-02-03T12:42:00.775Z,6.22
2023-02-03T12:43:00.882Z,6.25
2023-02-03T12:44:00.992Z,6.26
2023-02-03T12:45:01.135Z,6.28
2023-02-03T12:46:01.330Z,6.29
2023-02-03T12:47:00.292Z,6.31
2023-02-03T12:48:00.412Z,6.33
2023-02-03T12:49:00.525Z,6.34
2023-02-03T12:50:00.624Z,6.35
2023-02-03T12:51:00.762Z,6.35
2023-02-03T12:52:00.836Z,6.36
2023-02-03T12:53:00.945Z,6.37
2023-02-03T12:54:01.044Z,6.37
2023-02-03T12:55:01.188Z,6.39
2023-02-03T12:56:00.274Z,6.39
2023-02-03T12:57:00.391Z,6.39
2023-02-03T12:58:00.475Z,6.39
2023-02-03T12:59:00.595Z,6.38
2023-02-03T13:00:00.701Z,6.37
2023-02-03T13:01:00.875Z,6.37
2023-02-03T13:02:00.973Z,6.37
2023-02-03T13:03:00.991Z,6.37
2023-02-03T13:04:01.107Z,6.38
2023-02-03T13:05:01.205Z,6.39
2023-02-03T13:06:00.310Z,6.39
2023-02-03T13:07:00.437Z,6.41
2023-02-03T13:08:00.532Z,6.41
2023-02-03T13:09:00.627Z,6.42
2023-02-03T13:10:00.781Z,6.43
2023-02-03T13:11:00.843Z,6.45
2023-02-03T13:12:00.973Z,6.49
2023-02-03T13:13:01.073Z,6.5
2023-02-03T13:14:01.167Z,6.53
2023-02-03T13:15:00.267Z,6.54
2023-02-03T13:16:00.367Z,6.56
2023-02-03T13:17:00.476Z,6.58
2023-02-03T13:18:00.698Z,6.58
2023-02-03T13:19:00.686Z,6.58
2023-02-03T13:20:00.794Z,6.58
2023-02-03T13:21:00.898Z,6.59
2023-02-03T13:22:00.999Z,6.59
2023-02-03T13:23:01.141Z,6.59
2023-02-03T13:24:01.217Z,6.59
2023-02-03T13:25:00.330Z,6.59
2023-02-03T13:26:00.431Z,6.59
2023-02-03T13:27:00.538Z,6.59
2023-02-03T13:28:00.740Z,6.6
2023-02-03T13:29:00.762Z,6.59